sensor_id;sensor_type;location;lat;lon;timestamp;temperature;humidity
20520;DHT22;53432;51.952;14.740;2022-09-25T00:00:53;12.60;99.90
20520;DHT22;53432;51.952;14.740;2022-09-25T00:03:22;12.60;99.90
20520;DHT22;53432;51.952;14.740;2022-09-25T00:05:50;12.60;99.90
20520;DHT22;53432;51.952;14.740;2022-09-25T00:08:20;12.60;99.90
20520;DHT22;53432;51.952;14.740;2022-09-25T00:10:49;12.60;99.90
20520;DHT22;53432;51.952;14.740;2022-09-25T00:13:19;12.60;99.90
20520;DHT22;53432;51.952;14.740;2022-09-25T00:15:49;12.60;99.90
20520;DHT22;53432;51.952;14.740;2022-09-25T00:18:17;12.50;99.90
20520;DHT22;53432;51.952;14.740;2022-09-25T00:21:08;12.50;99.90
20520;DHT22;53432;51.952;14.740;2022-09-25T00:23:38;12.40;99.90
20520;DHT22;53432;51.952;14.740;2022-09-25T00:26:07;12.40;99.90
20520;DHT22;53432;51.952;14.740;2022-09-25T00:28:35;12.30;99.90
20520;DHT22;53432;51.952;14.740;2022-09-25T00:31:03;12.30;99.90
20520;DHT22;53432;51.952;14.740;2022-09-25T00:33:32;12.30;99.90
20520;DHT22;53432;51.952;14.740;2022-09-25T00:36:00;12.30;99.90
20520;DHT22;53432;51.952;14.740;2022-09-25T00:38:30;12.30;99.90
20520;DHT22;53432;51.952;14.740;2022-09-25T00:41:00;12.30;99.90
20520;DHT22;53432;51.952;14.740;2022-09-25T00:43:36;12.30;99.90
20520;DHT22;53432;51.952;14.740;2022-09-25T00:46:08;12.30;99.90
20520;DHT22;53432;51.952;14.740;2022-09-25T00:48:41;12.30;99.90
20520;DHT22;53432;51.952;14.740;2022-09-25T00:51:12;12.30;99.90
20520;DHT22;53432;51.952;14.740;2022-09-25T00:53:41;12.20;99.90
20520;DHT22;53432;51.952;14.740;2022-09-25T00:56:11;12.20;99.90
20520;DHT22;53432;51.952;14.740;2022-09-25T00:58:40;12.20;99.90
20520;DHT22;53432;51.952;14.740;2022-09-25T01:01:08;12.20;99.90
20520;DHT22;53432;51.952;14.740;2022-09-25T01:03:36;12.20;99.90
20520;DHT22;53432;51.952;14.740;2022-09-25T01:06:06;12.10;99.90
20520;DHT22;53432;51.952;14.740;2022-09-25T01:08:36;12.10;99.90
20520;DHT22;53432;51.952;14.740;2022-09-25T01:11:04;12.10;99.90
20520;DHT22;53432;51.952;14.740;2022-09-25T01:13:33;12.10;99.90
20520;DHT22;53432;51.952;14.740;2022-09-25T01:16:07;12.10;99.90
20520;DHT22;53432;51.952;14.740;2022-09-25T01:18:48;12.10;99.90
20520;DHT22;53432;51.952;14.740;2022-09-25T01:21:30;12.00;99.90
20520;DHT22;53432;51.952;14.740;2022-09-25T01:24:23;12.00;99.90
20520;DHT22;53432;51.952;14.740;2022-09-25T01:27:22;12.00;99.90
20520;DHT22;53432;51.952;14.740;2022-09-25T01:29:59;12.00;99.90
20520;DHT22;53432;51.952;14.740;2022-09-25T01:32:33;12.00;99.90
20520;DHT22;53432;51.952;14.740;2022-09-25T01:35:05;11.90;99.90
20520;DHT22;53432;51.952;14.740;2022-09-25T01:37:39;11.90;99.90
20520;DHT22;53432;51.952;14.740;2022-09-25T01:40:11;11.80;99.90
20520;DHT22;53432;51.952;14.740;2022-09-25T01:42:48;11.80;99.90
20520;DHT22;53432;51.952;14.740;2022-09-25T01:45:22;11.80;99.90
20520;DHT22;53432;51.952;14.740;2022-09-25T01:47:50;11.70;99.90
20520;DHT22;53432;51.952;14.740;2022-09-25T01:50:23;11.70;99.90
20520;DHT22;53432;51.952;14.740;2022-09-25T01:52:56;11.60;99.90
20520;DHT22;53432;51.952;14.740;2022-09-25T01:55:29;11.60;99.90
20520;DHT22;53432;51.952;14.740;2022-09-25T01:58:02;11.60;99.90
20520;DHT22;53432;51.952;14.740;2022-09-25T02:00:36;11.50;99.90
20520;DHT22;53432;51.952;14.740;2022-09-25T02:03:08;11.60;99.90
20520;DHT22;53432;51.952;14.740;2022-09-25T02:05:41;11.60;99.90
20520;DHT22;53432;51.952;14.740;2022-09-25T02:08:14;11.60;99.90
20520;DHT22;53432;51.952;14.740;2022-09-25T02:10:46;11.60;99.90
20520;DHT22;53432;51.952;14.740;2022-09-25T02:13:17;11.60;99.90
20520;DHT22;53432;51.952;14.740;2022-09-25T02:15:50;11.60;99.90
20520;DHT22;53432;51.952;14.740;2022-09-25T02:18:19;11.70;99.90
20520;DHT22;53432;51.952;14.740;2022-09-25T02:21:13;11.60;99.90
20520;DHT22;53432;51.952;14.740;2022-09-25T02:23:48;11.70;99.90
20520;DHT22;53432;51.952;14.740;2022-09-25T02:26:23;11.60;99.90
20520;DHT22;53432;51.952;14.740;2022-09-25T02:28:52;11.60;99.90
20520;DHT22;53432;51.952;14.740;2022-09-25T02:31:24;11.60;99.90
20520;DHT22;53432;51.952;14.740;2022-09-25T02:33:54;11.60;99.90
20520;DHT22;53432;51.952;14.740;2022-09-25T02:36:21;11.60;99.90
20520;DHT22;53432;51.952;14.740;2022-09-25T02:38:51;11.60;99.90
20520;DHT22;53432;51.952;14.740;2022-09-25T02:41:30;11.60;99.90
20520;DHT22;53432;51.952;14.740;2022-09-25T02:44:08;11.60;99.90
20520;DHT22;53432;51.952;14.740;2022-09-25T02:46:45;11.70;99.90
20520;DHT22;53432;51.952;14.740;2022-09-25T02:49:21;11.60;99.90
20520;DHT22;53432;51.952;14.740;2022-09-25T02:51:56;11.60;99.90
20520;DHT22;53432;51.952;14.740;2022-09-25T02:54:31;11.60;99.90
20520;DHT22;53432;51.952;14.740;2022-09-25T02:57:03;11.60;99.90
20520;DHT22;53432;51.952;14.740;2022-09-25T02:59:35;11.50;99.90
20520;DHT22;53432;51.952;14.740;2022-09-25T03:02:05;11.50;99.90
20520;DHT22;53432;51.952;14.740;2022-09-25T03:04:34;11.50;99.90
20520;DHT22;53432;51.952;14.740;2022-09-25T03:07:03;11.50;99.90
20520;DHT22;53432;51.952;14.740;2022-09-25T03:09:34;11.50;99.90
20520;DHT22;53432;51.952;14.740;2022-09-25T03:12:03;11.50;99.90
20520;DHT22;53432;51.952;14.740;2022-09-25T03:14:30;11.50;99.90
20520;DHT22;53432;51.952;14.740;2022-09-25T03:16:59;11.50;99.90
20520;DHT22;53432;51.952;14.740;2022-09-25T03:19:30;11.50;99.90
20520;DHT22;53432;51.952;14.740;2022-09-25T03:21:57;11.50;99.90
20520;DHT22;53432;51.952;14.740;2022-09-25T03:24:25;11.50;99.90
20520;DHT22;53432;51.952;14.740;2022-09-25T03:26:52;11.40;99.90
20520;DHT22;53432;51.952;14.740;2022-09-25T03:29:20;11.40;99.90
20520;DHT22;53432;51.952;14.740;2022-09-25T03:31:48;11.50;99.90
20520;DHT22;53432;51.952;14.740;2022-09-25T03:34:17;11.50;99.90
20520;DHT22;53432;51.952;14.740;2022-09-25T03:36:46;11.50;99.90
20520;DHT22;53432;51.952;14.740;2022-09-25T03:39:14;11.50;99.90
20520;DHT22;53432;51.952;14.740;2022-09-25T03:41:42;11.40;99.90
20520;DHT22;53432;51.952;14.740;2022-09-25T03:44:10;11.40;99.90
20520;DHT22;53432;51.952;14.740;2022-09-25T03:46:37;11.40;99.90
20520;DHT22;53432;51.952;14.740;2022-09-25T03:49:04;11.40;99.90
20520;DHT22;53432;51.952;14.740;2022-09-25T03:51:32;11.30;99.90
20520;DHT22;53432;51.952;14.740;2022-09-25T03:54:01;11.30;99.90
20520;DHT22;53432;51.952;14.740;2022-09-25T03:56:29;11.30;99.90
20520;DHT22;53432;51.952;14.740;2022-09-25T03:58:57;11.20;99.90
20520;DHT22;53432;51.952;14.740;2022-09-25T04:01:25;11.30;99.90
20520;DHT22;53432;51.952;14.740;2022-09-25T04:03:53;11.20;99.90
20520;DHT22;53432;51.952;14.740;2022-09-25T04:06:22;11.20;99.90
20520;DHT22;53432;51.952;14.740;2022-09-25T04:08:50;11.20;99.90
20520;DHT22;53432;51.952;14.740;2022-09-25T04:11:21;11.10;99.90
20520;DHT22;53432;51.952;14.740;2022-09-25T04:13:49;11.00;99.90
20520;DHT22;53432;51.952;14.740;2022-09-25T04:16:16;11.00;99.90
20520;DHT22;53432;51.952;14.740;2022-09-25T04:18:45;11.00;99.90
20520;DHT22;53432;51.952;14.740;2022-09-25T04:21:14;11.00;99.90
20520;DHT22;53432;51.952;14.740;2022-09-25T04:23:42;10.90;99.90
20520;DHT22;53432;51.952;14.740;2022-09-25T04:26:32;10.90;99.90
20520;DHT22;53432;51.952;14.740;2022-09-25T04:28:59;10.90;99.90
20520;DHT22;53432;51.952;14.740;2022-09-25T04:31:27;10.80;99.90
20520;DHT22;53432;51.952;14.740;2022-09-25T04:33:54;10.80;99.90
20520;DHT22;53432;51.952;14.740;2022-09-25T04:36:22;10.80;99.90
20520;DHT22;53432;51.952;14.740;2022-09-25T04:38:49;10.80;99.90
20520;DHT22;53432;51.952;14.740;2022-09-25T04:41:17;10.70;99.90
20520;DHT22;53432;51.952;14.740;2022-09-25T04:43:46;10.60;99.90
20520;DHT22;53432;51.952;14.740;2022-09-25T04:46:14;10.60;99.90
20520;DHT22;53432;51.952;14.740;2022-09-25T04:48:43;10.60;99.90
20520;DHT22;53432;51.952;14.740;2022-09-25T04:51:12;10.70;99.90
20520;DHT22;53432;51.952;14.740;2022-09-25T04:53:39;10.70;99.90
20520;DHT22;53432;51.952;14.740;2022-09-25T04:56:08;10.70;99.90
20520;DHT22;53432;51.952;14.740;2022-09-25T04:58:36;10.70;99.90
20520;DHT22;53432;51.952;14.740;2022-09-25T05:01:07;10.70;99.90
20520;DHT22;53432;51.952;14.740;2022-09-25T05:03:35;10.70;99.90
20520;DHT22;53432;51.952;14.740;2022-09-25T05:06:03;10.70;99.90
20520;DHT22;53432;51.952;14.740;2022-09-25T05:08:30;10.60;99.90
20520;DHT22;53432;51.952;14.740;2022-09-25T05:10:57;10.60;99.90
20520;DHT22;53432;51.952;14.740;2022-09-25T05:13:25;10.70;99.90
20520;DHT22;53432;51.952;14.740;2022-09-25T05:15:53;10.70;99.90
20520;DHT22;53432;51.952;14.740;2022-09-25T05:18:23;10.70;99.90
20520;DHT22;53432;51.952;14.740;2022-09-25T05:20:51;10.70;99.90
20520;DHT22;53432;51.952;14.740;2022-09-25T05:23:19;10.80;99.90
20520;DHT22;53432;51.952;14.740;2022-09-25T05:25:50;10.70;99.90
20520;DHT22;53432;51.952;14.740;2022-09-25T05:28:17;10.80;99.90
20520;DHT22;53432;51.952;14.740;2022-09-25T05:30:45;10.70;99.90
20520;DHT22;53432;51.952;14.740;2022-09-25T05:33:12;10.80;99.90
20520;DHT22;53432;51.952;14.740;2022-09-25T05:35:41;10.80;99.90
20520;DHT22;53432;51.952;14.740;2022-09-25T05:38:08;10.80;99.90
20520;DHT22;53432;51.952;14.740;2022-09-25T05:40:35;10.80;99.90
20520;DHT22;53432;51.952;14.740;2022-09-25T05:43:04;10.90;99.90
20520;DHT22;53432;51.952;14.740;2022-09-25T05:45:31;10.90;99.90
20520;DHT22;53432;51.952;14.740;2022-09-25T05:47:59;11.00;99.90
20520;DHT22;53432;51.952;14.740;2022-09-25T05:50:27;11.10;99.90
20520;DHT22;53432;51.952;14.740;2022-09-25T05:52:57;11.10;99.90
20520;DHT22;53432;51.952;14.740;2022-09-25T05:55:25;11.10;99.90
20520;DHT22;53432;51.952;14.740;2022-09-25T05:57:52;11.10;99.90
20520;DHT22;53432;51.952;14.740;2022-09-25T06:00:19;11.10;99.90
20520;DHT22;53432;51.952;14.740;2022-09-25T06:02:50;11.10;99.90
20520;DHT22;53432;51.952;14.740;2022-09-25T06:05:18;11.00;99.90
20520;DHT22;53432;51.952;14.740;2022-09-25T06:07:51;11.00;99.90
20520;DHT22;53432;51.952;14.740;2022-09-25T06:10:20;11.00;99.90
20520;DHT22;53432;51.952;14.740;2022-09-25T06:12:47;11.00;99.90
20520;DHT22;53432;51.952;14.740;2022-09-25T06:15:14;10.90;99.90
20520;DHT22;53432;51.952;14.740;2022-09-25T06:17:42;10.80;99.90
20520;DHT22;53432;51.952;14.740;2022-09-25T06:20:09;10.90;99.90
20520;DHT22;53432;51.952;14.740;2022-09-25T06:22:37;10.90;99.90
20520;DHT22;53432;51.952;14.740;2022-09-25T06:25:05;10.90;99.90
20520;DHT22;53432;51.952;14.740;2022-09-25T06:27:34;11.00;99.90
20520;DHT22;53432;51.952;14.740;2022-09-25T06:30:02;11.00;99.90
20520;DHT22;53432;51.952;14.740;2022-09-25T06:32:30;11.00;99.90
20520;DHT22;53432;51.952;14.740;2022-09-25T06:34:58;11.00;99.90
20520;DHT22;53432;51.952;14.740;2022-09-25T06:37:25;11.00;99.90
20520;DHT22;53432;51.952;14.740;2022-09-25T06:39:52;11.00;99.90
20520;DHT22;53432;51.952;14.740;2022-09-25T06:42:19;11.10;99.90
20520;DHT22;53432;51.952;14.740;2022-09-25T06:44:48;11.20;99.90
20520;DHT22;53432;51.952;14.740;2022-09-25T06:47:15;11.20;99.90
20520;DHT22;53432;51.952;14.740;2022-09-25T06:49:43;11.30;99.90
20520;DHT22;53432;51.952;14.740;2022-09-25T06:52:11;11.40;99.90
20520;DHT22;53432;51.952;14.740;2022-09-25T06:54:38;11.30;99.90
20520;DHT22;53432;51.952;14.740;2022-09-25T06:57:05;11.30;99.90
20520;DHT22;53432;51.952;14.740;2022-09-25T06:59:34;11.30;99.90
20520;DHT22;53432;51.952;14.740;2022-09-25T07:02:03;11.30;99.90
20520;DHT22;53432;51.952;14.740;2022-09-25T07:04:51;11.30;99.90
20520;DHT22;53432;51.952;14.740;2022-09-25T07:07:17;11.30;99.90
20520;DHT22;53432;51.952;14.740;2022-09-25T07:09:46;11.40;99.90
20520;DHT22;53432;51.952;14.740;2022-09-25T07:12:14;11.40;99.90
20520;DHT22;53432;51.952;14.740;2022-09-25T07:14:42;11.50;99.90
20520;DHT22;53432;51.952;14.740;2022-09-25T07:17:13;11.50;99.90
20520;DHT22;53432;51.952;14.740;2022-09-25T07:19:40;11.60;99.90
20520;DHT22;53432;51.952;14.740;2022-09-25T07:22:08;11.70;99.90
20520;DHT22;53432;51.952;14.740;2022-09-25T07:24:36;11.80;99.90
20520;DHT22;53432;51.952;14.740;2022-09-25T07:27:03;11.90;99.90
20520;DHT22;53432;51.952;14.740;2022-09-25T07:29:31;11.90;99.90
20520;DHT22;53432;51.952;14.740;2022-09-25T07:32:00;12.00;99.90
20520;DHT22;53432;51.952;14.740;2022-09-25T07:34:33;12.10;99.90
20520;DHT22;53432;51.952;14.740;2022-09-25T07:37:01;12.20;99.90
20520;DHT22;53432;51.952;14.740;2022-09-25T07:39:28;12.40;99.90
20520;DHT22;53432;51.952;14.740;2022-09-25T07:41:55;12.50;99.90
20520;DHT22;53432;51.952;14.740;2022-09-25T07:44:23;12.50;99.90
20520;DHT22;53432;51.952;14.740;2022-09-25T07:46:50;12.60;99.90
20520;DHT22;53432;51.952;14.740;2022-09-25T07:49:18;12.60;99.90
20520;DHT22;53432;51.952;14.740;2022-09-25T07:51:46;12.80;99.90
20520;DHT22;53432;51.952;14.740;2022-09-25T07:54:14;12.80;99.90
20520;DHT22;53432;51.952;14.740;2022-09-25T07:56:41;12.80;99.90
20520;DHT22;53432;51.952;14.740;2022-09-25T07:59:08;13.00;99.90
20520;DHT22;53432;51.952;14.740;2022-09-25T08:01:36;13.10;99.90
20520;DHT22;53432;51.952;14.740;2022-09-25T08:04:03;13.30;99.90
20520;DHT22;53432;51.952;14.740;2022-09-25T08:06:33;13.40;99.90
20520;DHT22;53432;51.952;14.740;2022-09-25T08:09:02;13.50;99.90
20520;DHT22;53432;51.952;14.740;2022-09-25T08:11:29;13.60;99.90
20520;DHT22;53432;51.952;14.740;2022-09-25T08:13:57;13.70;99.90
20520;DHT22;53432;51.952;14.740;2022-09-25T08:16:24;13.90;99.90
20520;DHT22;53432;51.952;14.740;2022-09-25T08:18:52;14.00;99.90
20520;DHT22;53432;51.952;14.740;2022-09-25T08:21:19;14.20;99.90
20520;DHT22;53432;51.952;14.740;2022-09-25T08:23:48;14.40;99.90
20520;DHT22;53432;51.952;14.740;2022-09-25T08:26:18;14.60;99.90
20520;DHT22;53432;51.952;14.740;2022-09-25T08:28:46;14.80;99.90
20520;DHT22;53432;51.952;14.740;2022-09-25T08:31:13;15.00;99.90
20520;DHT22;53432;51.952;14.740;2022-09-25T08:33:43;15.20;99.90
20520;DHT22;53432;51.952;14.740;2022-09-25T08:36:11;15.40;99.90
20520;DHT22;53432;51.952;14.740;2022-09-25T08:38:38;15.60;99.90
20520;DHT22;53432;51.952;14.740;2022-09-25T08:41:09;15.80;99.90
20520;DHT22;53432;51.952;14.740;2022-09-25T08:43:45;16.00;99.90
20520;DHT22;53432;51.952;14.740;2022-09-25T08:46:18;16.20;99.90
20520;DHT22;53432;51.952;14.740;2022-09-25T08:49:06;16.30;99.90
20520;DHT22;53432;51.952;14.740;2022-09-25T08:51:39;16.50;99.90
20520;DHT22;53432;51.952;14.740;2022-09-25T08:54:10;16.60;99.90
20520;DHT22;53432;51.952;14.740;2022-09-25T08:56:39;16.70;99.90
20520;DHT22;53432;51.952;14.740;2022-09-25T08:59:17;16.70;99.90
20520;DHT22;53432;51.952;14.740;2022-09-25T09:01:50;16.70;99.90
20520;DHT22;53432;51.952;14.740;2022-09-25T09:04:24;16.70;99.90
20520;DHT22;53432;51.952;14.740;2022-09-25T09:06:56;16.70;99.90
20520;DHT22;53432;51.952;14.740;2022-09-25T09:09:28;16.70;99.90
20520;DHT22;53432;51.952;14.740;2022-09-25T09:12:01;16.80;99.90
20520;DHT22;53432;51.952;14.740;2022-09-25T09:14:33;16.90;99.90
20520;DHT22;53432;51.952;14.740;2022-09-25T09:17:04;17.10;99.90
20520;DHT22;53432;51.952;14.740;2022-09-25T09:19:32;17.20;99.90
20520;DHT22;53432;51.952;14.740;2022-09-25T09:22:05;17.30;99.90
20520;DHT22;53432;51.952;14.740;2022-09-25T09:24:43;17.40;99.90
20520;DHT22;53432;51.952;14.740;2022-09-25T09:27:27;17.60;99.90
20520;DHT22;53432;51.952;14.740;2022-09-25T09:30:09;17.80;99.90
20520;DHT22;53432;51.952;14.740;2022-09-25T09:35:41;17.80;99.90
20520;DHT22;53432;51.952;14.740;2022-09-25T09:38:20;17.80;99.90
20520;DHT22;53432;51.952;14.740;2022-09-25T09:41:01;17.90;99.90
20520;DHT22;53432;51.952;14.740;2022-09-25T09:43:41;17.90;99.90
20520;DHT22;53432;51.952;14.740;2022-09-25T09:46:19;17.90;99.90
20520;DHT22;53432;51.952;14.740;2022-09-25T09:49:01;17.80;99.90
20520;DHT22;53432;51.952;14.740;2022-09-25T09:51:34;17.80;99.90
20520;DHT22;53432;51.952;14.740;2022-09-25T09:54:07;17.90;99.90
20520;DHT22;53432;51.952;14.740;2022-09-25T09:56:35;18.00;99.90
20520;DHT22;53432;51.952;14.740;2022-09-25T09:59:04;17.90;99.90
20520;DHT22;53432;51.952;14.740;2022-09-25T10:01:36;17.90;99.90
20520;DHT22;53432;51.952;14.740;2022-09-25T10:04:08;18.00;99.90
20520;DHT22;53432;51.952;14.740;2022-09-25T10:06:37;18.10;99.90
20520;DHT22;53432;51.952;14.740;2022-09-25T10:09:07;18.10;99.90
20520;DHT22;53432;51.952;14.740;2022-09-25T10:11:35;18.00;99.90
20520;DHT22;53432;51.952;14.740;2022-09-25T10:14:03;17.90;99.90
20520;DHT22;53432;51.952;14.740;2022-09-25T10:16:31;18.00;99.90
20520;DHT22;53432;51.952;14.740;2022-09-25T10:19:04;18.10;99.90
20520;DHT22;53432;51.952;14.740;2022-09-25T10:21:37;18.30;99.90
20520;DHT22;53432;51.952;14.740;2022-09-25T10:24:06;18.40;99.90
20520;DHT22;53432;51.952;14.740;2022-09-25T10:26:34;18.60;99.90
20520;DHT22;53432;51.952;14.740;2022-09-25T10:29:03;18.70;99.90
20520;DHT22;53432;51.952;14.740;2022-09-25T10:31:35;18.70;99.90
20520;DHT22;53432;51.952;14.740;2022-09-25T10:34:14;18.70;99.90
20520;DHT22;53432;51.952;14.740;2022-09-25T10:36:45;18.70;99.90
20520;DHT22;53432;51.952;14.740;2022-09-25T10:39:26;18.70;99.90
20520;DHT22;53432;51.952;14.740;2022-09-25T10:41:55;18.90;99.90
20520;DHT22;53432;51.952;14.740;2022-09-25T10:44:29;18.90;99.90
20520;DHT22;53432;51.952;14.740;2022-09-25T10:47:28;18.90;99.90
20520;DHT22;53432;51.952;14.740;2022-09-25T10:50:18;18.90;99.90
20520;DHT22;53432;51.952;14.740;2022-09-25T10:52:47;18.80;99.90
20520;DHT22;53432;51.952;14.740;2022-09-25T10:55:24;18.90;99.90
20520;DHT22;53432;51.952;14.740;2022-09-25T10:57:57;18.90;99.90
20520;DHT22;53432;51.952;14.740;2022-09-25T11:00:28;18.90;99.90
20520;DHT22;53432;51.952;14.740;2022-09-25T11:02:57;18.80;99.90
20520;DHT22;53432;51.952;14.740;2022-09-25T11:05:29;19.00;99.90
20520;DHT22;53432;51.952;14.740;2022-09-25T11:08:00;19.00;99.90
20520;DHT22;53432;51.952;14.740;2022-09-25T11:10:32;19.00;99.90
20520;DHT22;53432;51.952;14.740;2022-09-25T11:13:06;19.00;99.90
20520;DHT22;53432;51.952;14.740;2022-09-25T11:15:35;19.10;99.90
20520;DHT22;53432;51.952;14.740;2022-09-25T11:18:04;19.10;99.90
20520;DHT22;53432;51.952;14.740;2022-09-25T11:20:33;19.10;99.90
20520;DHT22;53432;51.952;14.740;2022-09-25T11:23:12;19.20;99.90
20520;DHT22;53432;51.952;14.740;2022-09-25T11:25:44;19.20;99.90
20520;DHT22;53432;51.952;14.740;2022-09-25T11:28:25;19.20;99.90
20520;DHT22;53432;51.952;14.740;2022-09-25T11:30:57;19.40;99.90
20520;DHT22;53432;51.952;14.740;2022-09-25T11:33:34;19.50;99.90
20520;DHT22;53432;51.952;14.740;2022-09-25T11:36:14;19.60;99.90
20520;DHT22;53432;51.952;14.740;2022-09-25T11:38:46;19.70;99.90
20520;DHT22;53432;51.952;14.740;2022-09-25T11:41:37;19.70;99.90
20520;DHT22;53432;51.952;14.740;2022-09-25T11:44:21;19.70;99.90
20520;DHT22;53432;51.952;14.740;2022-09-25T11:46:55;19.90;99.90
20520;DHT22;53432;51.952;14.740;2022-09-25T11:49:27;19.90;99.90
20520;DHT22;53432;51.952;14.740;2022-09-25T11:52:20;20.10;99.90
20520;DHT22;53432;51.952;14.740;2022-09-25T11:55:06;20.30;99.90
20520;DHT22;53432;51.952;14.740;2022-09-25T11:57:46;20.40;99.90
20520;DHT22;53432;51.952;14.740;2022-09-25T12:00:19;20.40;99.90
20520;DHT22;53432;51.952;14.740;2022-09-25T12:03:02;20.50;99.90
20520;DHT22;53432;51.952;14.740;2022-09-25T12:05:50;20.50;99.90
20520;DHT22;53432;51.952;14.740;2022-09-25T12:08:31;20.60;99.90
20520;DHT22;53432;51.952;14.740;2022-09-25T12:11:10;20.70;99.90
20520;DHT22;53432;51.952;14.740;2022-09-25T12:13:44;20.80;99.90
20520;DHT22;53432;51.952;14.740;2022-09-25T12:16:20;20.80;99.90
20520;DHT22;53432;51.952;14.740;2022-09-25T12:19:00;20.90;99.90
20520;DHT22;53432;51.952;14.740;2022-09-25T12:21:35;21.00;99.90
20520;DHT22;53432;51.952;14.740;2022-09-25T12:24:15;21.00;99.90
20520;DHT22;53432;51.952;14.740;2022-09-25T12:26:47;21.00;99.90
20520;DHT22;53432;51.952;14.740;2022-09-25T12:29:28;21.10;99.90
20520;DHT22;53432;51.952;14.740;2022-09-25T12:32:02;21.20;99.90
20520;DHT22;53432;51.952;14.740;2022-09-25T12:34:56;21.30;99.90
20520;DHT22;53432;51.952;14.740;2022-09-25T12:37:32;21.20;99.90
20520;DHT22;53432;51.952;14.740;2022-09-25T12:40:13;21.20;99.90
20520;DHT22;53432;51.952;14.740;2022-09-25T12:42:45;21.20;99.90
20520;DHT22;53432;51.952;14.740;2022-09-25T12:45:19;21.10;99.90
20520;DHT22;53432;51.952;14.740;2022-09-25T12:47:58;21.00;99.90
20520;DHT22;53432;51.952;14.740;2022-09-25T12:50:30;21.00;99.90
20520;DHT22;53432;51.952;14.740;2022-09-25T12:53:04;21.00;99.90
20520;DHT22;53432;51.952;14.740;2022-09-25T12:55:38;21.00;99.90
20520;DHT22;53432;51.952;14.740;2022-09-25T12:58:12;21.20;99.90
20520;DHT22;53432;51.952;14.740;2022-09-25T13:00:47;21.30;99.90
20520;DHT22;53432;51.952;14.740;2022-09-25T13:03:22;21.30;99.90
20520;DHT22;53432;51.952;14.740;2022-09-25T13:05:59;21.40;99.90
20520;DHT22;53432;51.952;14.740;2022-09-25T13:08:32;21.40;99.90
20520;DHT22;53432;51.952;14.740;2022-09-25T13:11:09;21.40;99.90
20520;DHT22;53432;51.952;14.740;2022-09-25T13:13:42;21.40;99.90
20520;DHT22;53432;51.952;14.740;2022-09-25T13:16:11;21.40;99.90
20520;DHT22;53432;51.952;14.740;2022-09-25T13:18:46;21.40;99.90
20520;DHT22;53432;51.952;14.740;2022-09-25T13:21:28;21.40;99.90
20520;DHT22;53432;51.952;14.740;2022-09-25T13:23:57;21.40;99.90
20520;DHT22;53432;51.952;14.740;2022-09-25T13:26:26;21.30;99.90
20520;DHT22;53432;51.952;14.740;2022-09-25T13:28:56;21.20;99.90
20520;DHT22;53432;51.952;14.740;2022-09-25T13:31:26;21.20;99.90
20520;DHT22;53432;51.952;14.740;2022-09-25T13:34:02;21.10;99.90
20520;DHT22;53432;51.952;14.740;2022-09-25T13:36:33;21.10;99.90
20520;DHT22;53432;51.952;14.740;2022-09-25T13:39:04;21.00;99.90
20520;DHT22;53432;51.952;14.740;2022-09-25T13:41:53;21.00;99.90
20520;DHT22;53432;51.952;14.740;2022-09-25T13:44:49;21.00;99.90
20520;DHT22;53432;51.952;14.740;2022-09-25T13:47:37;21.00;99.90
20520;DHT22;53432;51.952;14.740;2022-09-25T13:50:27;21.10;99.90
20520;DHT22;53432;51.952;14.740;2022-09-25T13:53:24;21.00;99.90
20520;DHT22;53432;51.952;14.740;2022-09-25T13:56:22;21.00;99.90
20520;DHT22;53432;51.952;14.740;2022-09-25T13:59:36;21.00;99.90
20520;DHT22;53432;51.952;14.740;2022-09-25T14:02:35;20.90;99.90
20520;DHT22;53432;51.952;14.740;2022-09-25T14:05:04;20.90;99.90
20520;DHT22;53432;51.952;14.740;2022-09-25T14:07:33;20.90;99.90
20520;DHT22;53432;51.952;14.740;2022-09-25T14:10:01;20.90;99.90
20520;DHT22;53432;51.952;14.740;2022-09-25T14:12:37;20.90;99.90
20520;DHT22;53432;51.952;14.740;2022-09-25T14:15:20;21.00;99.90
20520;DHT22;53432;51.952;14.740;2022-09-25T14:17:49;20.90;99.90
20520;DHT22;53432;51.952;14.740;2022-09-25T14:20:39;20.80;99.90
20520;DHT22;53432;51.952;14.740;2022-09-25T14:23:13;20.80;99.90
20520;DHT22;53432;51.952;14.740;2022-09-25T14:25:41;20.70;99.90
20520;DHT22;53432;51.952;14.740;2022-09-25T14:28:22;20.60;99.90
20520;DHT22;53432;51.952;14.740;2022-09-25T14:31:01;20.70;99.90
20520;DHT22;53432;51.952;14.740;2022-09-25T14:33:57;20.70;99.90
20520;DHT22;53432;51.952;14.740;2022-09-25T14:36:36;20.70;99.90
20520;DHT22;53432;51.952;14.740;2022-09-25T14:39:27;20.60;99.90
20520;DHT22;53432;51.952;14.740;2022-09-25T14:42:21;20.60;99.90
20520;DHT22;53432;51.952;14.740;2022-09-25T14:45:11;20.60;99.90
20520;DHT22;53432;51.952;14.740;2022-09-25T14:47:46;20.60;99.90
20520;DHT22;53432;51.952;14.740;2022-09-25T14:50:19;20.60;99.90
20520;DHT22;53432;51.952;14.740;2022-09-25T14:52:49;20.50;99.90
20520;DHT22;53432;51.952;14.740;2022-09-25T14:55:18;20.40;99.90
20520;DHT22;53432;51.952;14.740;2022-09-25T14:57:48;20.40;99.90
20520;DHT22;53432;51.952;14.740;2022-09-25T15:00:18;20.40;99.90
20520;DHT22;53432;51.952;14.740;2022-09-25T15:02:52;20.40;99.90
20520;DHT22;53432;51.952;14.740;2022-09-25T15:05:28;20.30;99.90
20520;DHT22;53432;51.952;14.740;2022-09-25T15:07:57;20.30;99.90
20520;DHT22;53432;51.952;14.740;2022-09-25T15:10:28;20.30;99.90
20520;DHT22;53432;51.952;14.740;2022-09-25T15:13:05;20.30;99.90
20520;DHT22;53432;51.952;14.740;2022-09-25T15:15:35;20.30;99.90
20520;DHT22;53432;51.952;14.740;2022-09-25T15:18:08;20.40;99.90
20520;DHT22;53432;51.952;14.740;2022-09-25T15:20:43;20.60;99.90
20520;DHT22;53432;51.952;14.740;2022-09-25T15:23:15;20.70;99.90
20520;DHT22;53432;51.952;14.740;2022-09-25T15:25:46;20.80;99.90
20520;DHT22;53432;51.952;14.740;2022-09-25T15:28:16;20.80;99.90
20520;DHT22;53432;51.952;14.740;2022-09-25T15:30:47;20.80;99.90
20520;DHT22;53432;51.952;14.740;2022-09-25T15:33:23;20.70;99.90
20520;DHT22;53432;51.952;14.740;2022-09-25T15:35:55;20.60;99.90
20520;DHT22;53432;51.952;14.740;2022-09-25T15:38:28;20.60;99.90
20520;DHT22;53432;51.952;14.740;2022-09-25T15:40:56;20.50;99.90
20520;DHT22;53432;51.952;14.740;2022-09-25T15:43:24;20.40;99.90
20520;DHT22;53432;51.952;14.740;2022-09-25T15:45:55;20.30;99.90
20520;DHT22;53432;51.952;14.740;2022-09-25T15:48:27;20.30;99.90
20520;DHT22;53432;51.952;14.740;2022-09-25T15:50:58;20.20;99.90